120 км

Карта отелей и гостиниц, располагающихся рядом с аэропортом 120 км :

120 км Томская область 60° 8' 21.9012" N, 78° 3' 33.5988" E
120 км Томская область 60° 8' 21.9012" N, 78° 3' 33.5988" E
Код аэродрома ИКАО
HDU6
Код аэродрома RU
ХДУ6
Координаты
N60.13942° E078.05933°
Превышение над уровнем моря
72
Основная полоса
Курс магнитный
Длина основной ВПП
Ширина основной ВПП
Покрытие основной ВПП
Освещение ВПП
Тип: 
Вертодром
Класс аэродрома: 
Принадлежность: 
ГА
Статус: 
Действующий
Сайт: 
E-mail аэродрома: 
Страна: 
Россия
Регион: 
Томская область
Город: 
Дополнительная информация: 

Найти трансфер

С помощью этой формы Вы можете найти трансфер из аэропорта 120 км в город, аэропорт или вокзал:

Карта места

Javascript is required to view this map.

Погода в аэропортах:

Авиационная погода в Витебске

Регион: 
Погода METAR: 
UMII 060700Z 09003MPS 4900 BR BKN006 BKN012CB M04/M05 Q1013 TEMPO 2000 SHSN BKN005 RMK QBB190
Время наблюдения
2021-12-06T07:00:00Z
Температура C
-4.0
Точка росы
-5.0
Направление ветра
90
Скорость ветра (узлы)
6
Метео видимость
3.04
Явления погоды
BR
Условия полета
IFR

Авиационная погода в Астане

Регион: 
Погода METAR: 
UACC 060800Z 23006MPS 5000 -DZ BR OVC004 00/M00 Q1017 TEMPO 1000 SHRASN BR BKN003 BKN015CB RMK QBB120 QFE731/0975
Время наблюдения
2021-12-06T08:00:00Z
Температура C
0.0
Точка росы
0.0
Направление ветра
230
Скорость ветра (узлы)
12
Метео видимость
3.11
Явления погоды
-DZ BR
Условия полета
LIFR
Аэропорт подробнее: 

Авиационная погода в аэропорту Алыкель

Регион: 
Погода METAR: 
UOOO 061030Z 18013MPS 0250 R19/0800N SN BLSN OVC026 M25/M27 Q1001 R19/39//42 NOSIG RMK QFE735/0980
Время наблюдения
2021-12-06T10:30:00Z
Температура C
-25.0
Точка росы
-27.0
Направление ветра
180
Скорость ветра (узлы)
25
Метео видимость
0.16
Явления погоды
SN BLSN
Условия полета
LIFR
Аэропорт подробнее: 

Авиационная погода в Киркенесе

Регион: 
Погода METAR: 
ENKR 061020Z 23020KT 9999 DRSN SCT100 M15/M20 Q1020 RMK WIND 731FT 23022KT
Время наблюдения
2021-12-06T10:20:00Z
Температура C
-15.0
Точка росы
-20.0
Направление ветра
230
Скорость ветра (узлы)
20
Метео видимость
6.21
Явления погоды
DRSN
Условия полета
VFR